createdAt,value
2022-12-24T00:04:33.367Z,98027.41
2022-12-24T00:10:35.260Z,98026.22
2022-12-24T00:16:37.242Z,98026.34
2022-12-24T00:22:39.173Z,98034.72
2022-12-24T00:28:41.355Z,98050.44
2022-12-24T00:34:43.256Z,98046.63
2022-12-24T00:40:45.137Z,98056.78
2022-12-24T00:46:47.101Z,98062.03
2022-12-24T00:52:49.409Z,98068.63
2022-12-24T00:58:51.796Z,98082.34
2022-12-24T01:05:12.148Z,98087.75
2022-12-24T01:11:14.320Z,98101.22
2022-12-24T01:17:16.308Z,98103.19
2022-12-24T01:23:18.201Z,98130.69
2022-12-24T01:29:20.318Z,98139.03
2022-12-24T01:35:22.297Z,98148.34
2022-12-24T01:41:43.557Z,98172.59
2022-12-24T01:47:45.459Z,98173.84
2022-12-24T01:53:58.574Z,98186.56
2022-12-24T02:00:06.683Z,98198.75
2022-12-24T02:06:11.857Z,98207.84
2022-12-24T02:12:13.826Z,98215.66
2022-12-24T02:19:04.134Z,98222.78
2022-12-24T02:25:17.700Z,98233.28
2022-12-24T02:31:37.685Z,98240.78
2022-12-24T02:38:03.131Z,98245.78
2022-12-24T02:44:05.400Z,98246.75
2022-12-24T02:50:10.336Z,98267.00
2022-12-24T02:56:45.973Z,98265.69
2022-12-24T03:03:09.656Z,98278.06
2022-12-24T03:09:44.760Z,98278.25
2022-12-24T03:15:48.132Z,98294.94
2022-12-24T03:21:51.409Z,98299.72
2022-12-24T03:27:56.309Z,98310.91
2022-12-24T03:33:58.257Z,98327.81
2022-12-24T03:40:00.176Z,98342.44
2022-12-24T03:46:07.910Z,98353.19
2022-12-24T03:52:12.877Z,98347.16
2022-12-24T03:58:14.756Z,98359.34
2022-12-24T04:04:16.674Z,98369.97
2022-12-24T04:10:18.668Z,98380.56
2022-12-24T04:16:20.702Z,98374.81
2022-12-24T04:22:22.683Z,98379.59
2022-12-24T04:28:24.559Z,98390.72
2022-12-24T04:34:27.578Z,98398.94
2022-12-24T04:40:29.583Z,98406.97
2022-12-24T04:46:31.670Z,98417.31
2022-12-24T04:52:34.717Z,98411.88
2022-12-24T04:58:38.144Z,98416.09
2022-12-24T05:04:40.172Z,98414.88
2022-12-24T05:10:42.046Z,98424.78
2022-12-24T05:16:44.048Z,98428.94
2022-12-24T05:23:04.369Z,98439.47
2022-12-24T05:29:12.056Z,98461.72
2022-12-24T05:35:14.005Z,98469.09
2022-12-24T05:41:16.375Z,98475.31
2022-12-24T05:47:18.263Z,98474.28
2022-12-24T05:53:20.909Z,98489.75
2022-12-24T05:59:22.870Z,98487.66
2022-12-24T06:05:25.262Z,98494.13
2022-12-24T06:11:28.518Z,98515.53
2022-12-24T06:17:30.434Z,98517.38
2022-12-24T06:23:35.666Z,98524.19
2022-12-24T06:29:37.546Z,98528.31
2022-12-24T06:35:39.428Z,98516.78
2022-12-24T06:41:41.315Z,98530.19
2022-12-24T06:47:43.387Z,98547.44
2022-12-24T06:53:45.794Z,98555.72
2022-12-24T06:59:47.677Z,98572.81
2022-12-24T07:05:49.563Z,98586.41
2022-12-24T07:11:51.527Z,98587.47
2022-12-24T07:17:54.496Z,98593.00
2022-12-24T07:23:56.433Z,98597.72
2022-12-24T07:29:58.310Z,98601.22
2022-12-24T07:36:03.640Z,98611.31
2022-12-24T07:42:07.940Z,98622.22
2022-12-24T07:48:09.930Z,98626.53
2022-12-24T07:54:11.809Z,98627.16
2022-12-24T08:00:14.236Z,98648.31
2022-12-24T08:06:16.116Z,98659.44
2022-12-24T08:12:18.039Z,98652.69
2022-12-24T08:18:20.009Z,98650.41
2022-12-24T08:24:22.034Z,98673.66
2022-12-24T08:30:23.912Z,98669.97
2022-12-24T08:36:25.789Z,98680.84
2022-12-24T08:42:27.730Z,98672.81
2022-12-24T08:48:29.749Z,98682.66
2022-12-24T08:54:31.712Z,98689.88
2022-12-24T09:00:33.903Z,98697.50
2022-12-24T09:06:36.448Z,98701.00
2022-12-24T09:12:38.925Z,98720.53
2022-12-24T09:18:41.182Z,98724.84
2022-12-24T09:24:43.154Z,98744.03
2022-12-24T09:30:45.077Z,98755.75
2022-12-24T09:36:46.989Z,98751.22
2022-12-24T09:42:54.411Z,98765.25
2022-12-24T09:49:02.424Z,98770.78
2022-12-24T09:55:28.341Z,98780.25
2022-12-24T10:01:33.737Z,98779.81
2022-12-24T10:08:04.560Z,98778.41
2022-12-24T10:14:46.677Z,98786.63
2022-12-24T10:21:50.626Z,98798.63
2022-12-24T10:27:55.848Z,98808.91
2022-12-24T10:34:05.287Z,98811.97
2022-12-24T10:40:14.603Z,98822.06
2022-12-24T10:46:19.733Z,98827.00
2022-12-24T10:52:27.538Z,98829.91
2022-12-24T10:58:30.508Z,98824.94
2022-12-24T11:04:45.507Z,98827.59
2022-12-24T11:11:14.105Z,98839.13
2022-12-24T11:17:23.253Z,98836.63
2022-12-24T11:23:25.593Z,98841.94
2022-12-24T11:29:28.855Z,98833.88
2022-12-24T11:35:39.073Z,98837.69
2022-12-24T11:41:42.115Z,98835.41
2022-12-24T11:47:44.011Z,98836.25
2022-12-24T11:54:22.814Z,98843.44
2022-12-24T12:00:27.061Z,98831.91
2022-12-24T12:06:49.342Z,98837.41
2022-12-24T12:13:15.632Z,98851.53
2022-12-24T12:19:22.912Z,98854.00
2022-12-24T12:25:51.955Z,98864.69
2022-12-24T12:32:02.538Z,98865.25
2022-12-24T12:38:12.212Z,98855.09
2022-12-24T12:44:49.144Z,98880.66
2022-12-24T12:51:08.043Z,98871.75
2022-12-24T12:57:15.876Z,98876.13
2022-12-24T13:03:50.616Z,98891.06
2022-12-24T13:10:26.106Z,98891.34
2022-12-24T13:17:06.153Z,98897.03
2022-12-24T13:23:22.635Z,98908.78
2022-12-24T13:29:36.656Z,98910.88
2022-12-24T13:35:59.470Z,98921.19
2022-12-24T13:42:01.386Z,98928.47
2022-12-24T13:48:05.972Z,98931.09
2022-12-24T13:54:13.997Z,98931.31
2022-12-24T14:00:21.890Z,98943.97
2022-12-24T14:06:42.091Z,98942.16
2022-12-24T14:12:53.152Z,98950.19
2022-12-24T14:19:12.317Z,98959.88
2022-12-24T14:25:24.184Z,98970.22
2022-12-24T14:31:26.219Z,98979.28
2022-12-24T14:37:34.406Z,98989.19
2022-12-24T14:44:09.111Z,98991.09
2022-12-24T14:50:37.397Z,98998.72
2022-12-24T14:56:39.667Z,99006.38
2022-12-24T15:02:51.979Z,99025.53
2022-12-24T15:08:54.916Z,99021.34
2022-12-24T15:14:57.022Z,99031.81
2022-12-24T15:21:04.854Z,99045.97
2022-12-24T15:27:21.096Z,99049.56
2022-12-24T15:33:22.971Z,99056.03
2022-12-24T15:39:24.939Z,99069.47
2022-12-24T15:45:38.902Z,99077.72
2022-12-24T15:51:41.041Z,99085.97
2022-12-24T15:57:42.968Z,99095.34
2022-12-24T16:03:50.974Z,99090.13
2022-12-24T16:10:12.889Z,99102.38
2022-12-24T16:16:20.434Z,99098.97
2022-12-24T16:22:35.034Z,99112.84
2022-12-24T16:28:36.994Z,99109.69
2022-12-24T16:34:38.937Z,99126.00
2022-12-24T16:40:42.048Z,99118.41
2022-12-24T16:46:43.995Z,99125.41
2022-12-24T16:52:45.901Z,99126.59
2022-12-24T16:58:47.838Z,99137.16
2022-12-24T17:04:50.641Z,99147.84
2022-12-24T17:10:52.839Z,99154.28
2022-12-24T17:16:54.784Z,99167.84
2022-12-24T17:22:56.759Z,99166.13
2022-12-24T17:28:58.683Z,99184.94
2022-12-24T17:35:02.286Z,99188.09
2022-12-24T17:41:07.539Z,99185.94
2022-12-24T17:47:09.453Z,99181.72
2022-12-24T17:53:11.356Z,99180.75
2022-12-24T17:59:14.050Z,99190.88
2022-12-24T18:05:16.186Z,99191.81
2022-12-24T18:11:32.710Z,99206.53
2022-12-24T18:17:34.644Z,99197.97
2022-12-24T18:23:37.224Z,99205.75
2022-12-24T18:29:41.651Z,99215.59
2022-12-24T18:35:43.683Z,99214.88
2022-12-24T18:41:45.627Z,99227.16
2022-12-24T18:47:47.550Z,99222.91
2022-12-24T18:53:50.479Z,99216.75
2022-12-24T18:59:52.375Z,99241.53
2022-12-24T19:05:54.293Z,99253.19
2022-12-24T19:11:56.219Z,99246.38
2022-12-24T19:17:58.170Z,99243.22
2022-12-24T19:24:00.123Z,99242.91
2022-12-24T19:30:02.607Z,99234.41
2022-12-24T19:36:10.352Z,99234.41
2022-12-24T19:42:12.267Z,99258.69
2022-12-24T19:48:14.161Z,99254.53
2022-12-24T19:54:19.164Z,99263.94
2022-12-24T20:00:21.532Z,99271.38
2022-12-24T20:06:28.188Z,99262.69
2022-12-24T20:12:30.327Z,99270.06
2022-12-24T20:18:32.819Z,99276.38
2022-12-24T20:24:34.792Z,99276.38
2022-12-24T20:30:36.894Z,99277.09
2022-12-24T20:36:38.911Z,99292.03
2022-12-24T20:42:41.106Z,99281.41
2022-12-24T20:48:43.077Z,99277.75
2022-12-24T20:54:45.042Z,99279.75
2022-12-24T21:00:48.473Z,99292.38
2022-12-24T21:06:50.621Z,99299.69
2022-12-24T21:12:56.960Z,99296.19
2022-12-24T21:18:59.520Z,99296.00
2022-12-24T21:25:01.390Z,99296.66
2022-12-24T21:31:12.030Z,99313.13
2022-12-24T21:37:14.023Z,99334.69
2022-12-24T21:43:15.909Z,99330.25
2022-12-24T21:49:36.597Z,99331.91
2022-12-24T21:55:38.481Z,99332.41
2022-12-24T22:01:40.454Z,99333.09
2022-12-24T22:08:01.318Z,99328.28
2022-12-24T22:14:03.999Z,99327.97
2022-12-24T22:20:07.275Z,99343.06
2022-12-24T22:26:17.883Z,99347.06
2022-12-24T22:32:20.350Z,99357.03
2022-12-24T22:38:22.233Z,99346.53
2022-12-24T22:44:24.837Z,99344.06
2022-12-24T22:50:26.797Z,99340.91
2022-12-24T22:56:28.719Z,99342.41
2022-12-24T23:02:30.884Z,99331.09
2022-12-24T23:08:37.117Z,99327.94
2022-12-24T23:14:57.384Z,99327.25
2022-12-24T23:21:04.174Z,99313.63
2022-12-24T23:27:06.292Z,99313.13
2022-12-24T23:33:09.753Z,99325.13
2022-12-24T23:39:11.727Z,99313.72
2022-12-24T23:45:13.674Z,99313.22
2022-12-24T23:51:23.583Z,99311.13
2022-12-24T23:57:25.584Z,99304.06
